Time;durP1;ratioP1;P1;durP2;ratioP2;P2;SDS_P1;SDS_P2;PMS_P1;PMS_P2;Temp;Humidity;BMP_temperature;BMP_pressure;BME280_temperature;BME280_humidity;BME280_pressure;Samples;Min_cycle;Max_cycle;Signal;HPM_P1;HPM_P2
2023/09/24 03:30:59;;;;;;;1.20;1.10;;;9.00;99.90;;;;;;5920371;22;21596;-67
2023/09/24 03:33:27;;;;;;;1.58;1.30;;;9.00;99.90;;;;;;4992677;28;20298;-67
2023/09/24 03:35:54;;;;;;;2.13;1.52;;;8.90;99.90;;;;;;4997924;28;20754;-67
2023/09/24 03:38:21;;;;;;;2.00;1.70;;;8.90;99.90;;;;;;4994743;28;20213;-67
2023/09/24 03:40:48;;;;;;;1.27;1.17;;;8.90;99.90;;;;;;4997171;28;20244;-67
2023/09/24 03:43:15;;;;;;;2.35;2.10;;;8.90;99.90;;;;;;4992041;28;20204;-67
2023/09/24 03:45:42;;;;;;;1.25;1.05;;;8.90;99.90;;;;;;4988443;28;20207;-67
2023/09/24 03:48:10;;;;;;;1.58;1.45;;;8.90;99.90;;;;;;4991024;28;20211;-67
2023/09/24 03:50:39;;;;;;;2.65;1.42;;;8.90;99.90;;;;;;4990335;28;20226;-67
2023/09/24 03:53:06;;;;;;;2.33;1.50;;;8.90;99.90;;;;;;4990247;28;20299;-66
2023/09/24 03:55:35;;;;;;;1.80;1.70;;;8.80;99.90;;;;;;4991441;28;20217;-66
2023/09/24 03:58:02;;;;;;;1.42;1.25;;;8.80;99.90;;;;;;4989402;28;20266;-67
2023/09/24 04:00:31;;;;;;;2.28;1.58;;;8.80;99.90;;;;;;4993516;28;20585;-67
2023/09/24 04:02:58;;;;;;;1.42;1.33;;;8.80;99.90;;;;;;4988257;28;20207;-67
2023/09/24 04:05:27;;;;;;;1.38;1.25;;;8.70;99.90;;;;;;4994028;28;20214;-66
2023/09/24 04:07:55;;;;;;;1.40;1.30;;;8.60;99.90;;;;;;4988518;28;20606;-67
2023/09/24 04:10:23;;;;;;;1.30;1.20;;;8.60;99.90;;;;;;4995664;28;20202;-67
2023/09/24 04:12:51;;;;;;;2.00;1.80;;;8.60;99.90;;;;;;4985810;28;20563;-67
2023/09/24 04:15:19;;;;;;;1.77;1.48;;;8.60;99.90;;;;;;4983972;28;20219;-67
2023/09/24 04:17:46;;;;;;;2.75;1.30;;;8.60;99.90;;;;;;4981828;28;20199;-66
2023/09/24 04:20:14;;;;;;;1.70;1.60;;;8.60;99.90;;;;;;4983729;28;20627;-67
2023/09/24 04:22:44;;;;;;;2.33;1.90;;;8.50;99.90;;;;;;4982537;28;20291;-67
2023/09/24 04:25:11;;;;;;;1.27;1.17;;;8.50;99.90;;;;;;4983313;28;20212;-67
2023/09/24 04:27:38;;;;;;;2.00;1.80;;;8.50;99.90;;;;;;4983084;28;20207;-66
2023/09/24 04:30:10;;;;;;;1.63;1.52;;;8.50;99.90;;;;;;4982860;28;20208;-67
2023/09/24 04:32:37;;;;;;;1.85;1.45;;;8.40;99.90;;;;;;4983145;28;20227;-67
2023/09/24 04:35:05;;;;;;;1.65;1.55;;;8.40;99.90;;;;;;4982358;28;20600;-67
2023/09/24 04:37:31;;;;;;;3.33;1.40;;;8.40;99.90;;;;;;4984163;28;20238;-67
2023/09/24 04:39:59;;;;;;;1.75;1.45;;;8.40;99.90;;;;;;4981433;28;20208;-67
2023/09/24 04:42:26;;;;;;;1.45;1.35;;;8.40;99.90;;;;;;4984994;28;20484;-67
2023/09/24 04:44:53;;;;;;;1.65;1.50;;;8.40;99.90;;;;;;4981564;28;20665;-66
2023/09/24 04:47:19;;;;;;;2.30;1.83;;;8.30;99.90;;;;;;4984886;28;20218;-67
2023/09/24 04:49:46;;;;;;;2.60;1.92;;;8.30;99.90;;;;;;4982505;28;20593;-67
2023/09/24 04:52:13;;;;;;;2.10;1.85;;;8.30;99.90;;;;;;4983989;28;20235;-66
2023/09/24 04:54:40;;;;;;;2.17;1.77;;;8.30;99.90;;;;;;4983054;28;20214;-67
2023/09/24 04:57:09;;;;;;;4.05;1.95;;;8.30;99.90;;;;;;4983241;28;20215;-67
2023/09/24 04:59:36;;;;;;;1.58;1.30;;;8.30;99.90;;;;;;4984121;28;20266;-67
2023/09/24 05:02:03;;;;;;;2.22;1.90;;;8.20;99.90;;;;;;4982704;28;20224;-67
2023/09/24 05:04:31;;;;;;;2.40;2.20;;;8.20;99.90;;;;;;4984512;28;20723;-66
2023/09/24 05:06:58;;;;;;;2.20;1.80;;;8.20;99.90;;;;;;4982078;28;20208;-67
2023/09/24 05:09:25;;;;;;;2.28;1.88;;;8.20;99.90;;;;;;4985497;28;20213;-67
2023/09/24 05:11:52;;;;;;;1.75;1.52;;;8.20;99.90;;;;;;4981972;28;20223;-67
2023/09/24 05:14:20;;;;;;;2.28;2.00;;;8.20;99.90;;;;;;4984439;28;20582;-67
2023/09/24 05:16:47;;;;;;;1.50;1.40;;;8.20;99.90;;;;;;4982899;28;20235;-67
2023/09/24 05:19:14;;;;;;;2.20;1.60;;;8.10;99.90;;;;;;4984526;28;20216;-67
2023/09/24 05:21:41;;;;;;;3.33;1.80;;;8.20;99.90;;;;;;4983639;28;20229;-67
2023/09/24 05:24:08;;;;;;;2.35;1.60;;;8.10;99.90;;;;;;4983147;28;20211;-67
2023/09/24 05:26:35;;;;;;;2.95;1.38;;;8.10;99.90;;;;;;4984919;28;20207;-66
2023/09/24 05:29:01;;;;;;;2.17;1.65;;;8.10;99.90;;;;;;4982587;28;20239;-67
2023/09/24 05:31:29;;;;;;;1.60;1.48;;;8.10;99.90;;;;;;4985261;28;20226;-67
2023/09/24 05:33:57;;;;;;;1.45;1.33;;;8.10;99.90;;;;;;4981683;28;20203;-68
2023/09/24 05:36:24;;;;;;;1.90;1.75;;;8.10;99.90;;;;;;4981318;28;20251;-67
2023/09/24 05:38:51;;;;;;;1.75;1.52;;;8.10;99.90;;;;;;4982707;28;20594;-68
2023/09/24 05:41:18;;;;;;;2.17;1.83;;;8.10;99.90;;;;;;4984907;28;20227;-66
2023/09/24 05:43:47;;;;;;;2.58;2.03;;;8.10;99.90;;;;;;4983219;28;20218;-67
2023/09/24 05:46:14;;;;;;;2.05;1.70;;;8.10;99.90;;;;;;4984362;28;20775;-67
2023/09/24 05:48:42;;;;;;;2.05;1.85;;;8.10;99.90;;;;;;4984371;28;20346;-67
2023/09/24 05:51:09;;;;;;;1.40;1.30;;;8.10;99.90;;;;;;4983227;28;20227;-67
2023/09/24 05:53:36;;;;;;;1.70;1.60;;;8.20;99.90;;;;;;4984264;28;20238;-67
2023/09/24 05:56:03;;;;;;;4.45;1.85;;;8.20;99.90;;;;;;4982930;28;20219;-67
2023/09/24 05:58:30;;;;;;;1.98;1.73;;;8.20;99.90;;;;;;4985621;28;20281;-67
2023/09/24 06:00:58;;;;;;;1.60;1.50;;;8.20;99.90;;;;;;4982188;28;20231;-66
2023/09/24 06:03:25;;;;;;;2.35;1.60;;;8.40;99.90;;;;;;4981195;28;20210;-67
2023/09/24 06:05:53;;;;;;;3.33;1.70;;;8.60;99.90;;;;;;4982947;28;20254;-66
2023/09/24 06:08:20;;;;;;;1.80;1.45;;;8.80;99.90;;;;;;4985511;28;20289;-66
2023/09/24 06:10:47;;;;;;;2.10;1.90;;;8.80;99.90;;;;;;4984172;28;20256;-66
2023/09/24 06:13:15;;;;;;;2.28;1.80;;;8.90;99.90;;;;;;4984669;28;20662;-67
2023/09/24 06:15:42;;;;;;;2.28;1.60;;;8.90;99.90;;;;;;4984439;28;20691;-66
2023/09/24 06:18:09;;;;;;;3.90;2.42;;;8.80;99.90;;;;;;4984106;28;20294;-66
2023/09/24 06:20:38;;;;;;;3.05;2.17;;;8.80;99.90;;;;;;4984111;28;20318;-66
2023/09/24 06:23:07;;;;;;;1.98;1.80;;;8.80;99.90;;;;;;4997083;28;20561;-66
2023/09/24 06:25:33;;;;;;;2.42;1.98;;;8.80;99.90;;;;;;4999074;28;20230;-66
2023/09/24 06:28:00;;;;;;;1.88;1.50;;;8.80;99.90;;;;;;4991946;28;20247;-66
2023/09/24 06:30:27;;;;;;;1.90;1.73;;;8.90;99.90;;;;;;4985875;28;20595;-66
2023/09/24 06:32:54;;;;;;;2.05;1.60;;;9.00;99.90;;;;;;4982680;28;20715;-66
2023/09/24 06:35:21;;;;;;;1.73;1.42;;;9.00;99.90;;;;;;4985209;28;20218;-66
2023/09/24 06:37:48;;;;;;;2.75;1.63;;;9.10;99.90;;;;;;4983764;28;20207;-67
2023/09/24 06:40:16;;;;;;;1.48;1.38;;;9.20;99.90;;;;;;4984419;28;20680;-66
2023/09/24 06:42:45;;;;;;;2.75;2.40;;;9.30;99.90;;;;;;4984737;28;20683;-66
2023/09/24 06:45:12;;;;;;;1.92;1.75;;;9.30;99.90;;;;;;4983743;28;20306;-67
2023/09/24 06:47:39;;;;;;;1.98;1.85;;;9.40;99.90;;;;;;4985816;28;20210;-66
2023/09/24 06:50:06;;;;;;;2.20;1.65;;;9.60;99.90;;;;;;4983258;28;20208;-66
2023/09/24 06:52:33;;;;;;;2.55;1.83;;;9.70;99.90;;;;;;4985740;28;20233;-67
2023/09/24 06:55:00;;;;;;;2.17;1.98;;;9.70;99.90;;;;;;4982474;28;20207;-66
2023/09/24 06:57:28;;;;;;;2.80;2.53;;;9.90;99.90;;;;;;4986057;28;20208;-67
2023/09/24 06:59:55;;;;;;;2.45;2.00;;;10.00;99.90;;;;;;4983708;28;20208;-67
2023/09/24 07:02:23;;;;;;;2.50;2.30;;;10.10;99.90;;;;;;4986081;28;20594;-66
2023/09/24 07:04:50;;;;;;;9.27;2.67;;;10.20;99.90;;;;;;4987953;28;20212;-67
2023/09/24 07:07:17;;;;;;;4.22;1.80;;;10.40;99.90;;;;;;4989431;28;20211;-67
2023/09/24 07:09:47;;;;;;;3.63;1.88;;;10.50;99.90;;;;;;4989630;28;20261;-67
2023/09/24 07:12:13;;;;;;;2.53;2.33;;;10.70;99.90;;;;;;4990895;28;20691;-66
2023/09/24 07:14:41;;;;;;;4.05;2.50;;;10.80;99.90;;;;;;4990047;28;20207;-67
2023/09/24 07:17:08;;;;;;;3.72;2.88;;;11.10;99.90;;;;;;4989069;28;20231;-67
2023/09/24 07:19:35;;;;;;;2.80;2.30;;;11.20;99.90;;;;;;4991048;28;20234;-67
2023/09/24 07:22:02;;;;;;;2.70;1.90;;;11.40;99.90;;;;;;4988134;28;20263;-67
2023/09/24 07:24:29;;;;;;;2.30;2.10;;;11.60;99.90;;;;;;4990518;28;20204;-67
2023/09/24 07:26:56;;;;;;;3.13;2.80;;;11.80;99.90;;;;;;4988863;28;20220;-66
2023/09/24 07:29:23;;;;;;;2.53;2.33;;;12.00;99.90;;;;;;4985043;28;20206;-66
2023/09/24 07:31:51;;;;;;;3.22;2.35;;;12.10;99.90;;;;;;4988507;28;20247;-66
2023/09/24 07:34:18;;;;;;;3.08;2.47;;;12.30;99.90;;;;;;5004888;28;20223;-63
2023/09/24 07:36:45;;;;;;;4.75;2.22;;;12.50;99.90;;;;;;4997501;28;20237;-64
2023/09/24 07:39:12;;;;;;;2.03;1.70;;;12.70;99.90;;;;;;4996821;28;20296;-64
2023/09/24 07:41:38;;;;;;;3.65;2.80;;;12.90;99.90;;;;;;4995988;28;20226;-63
2023/09/24 07:44:06;;;;;;;2.45;2.25;;;13.10;99.90;;;;;;5000683;28;20210;-64
2023/09/24 07:46:33;;;;;;;5.22;2.72;;;13.30;99.90;;;;;;5002554;28;20299;-66
2023/09/24 07:49:05;;;;;;;4.07;2.80;;;13.40;99.90;;;;;;4995283;28;20210;-66
2023/09/24 07:51:32;;;;;;;3.70;3.10;;;13.50;99.90;;;;;;4988911;28;20486;-66
2023/09/24 07:54:00;;;;;;;1.97;1.83;;;13.70;99.90;;;;;;4994962;28;20467;-66
2023/09/24 07:56:26;;;;;;;2.70;2.20;;;13.90;99.90;;;;;;5007176;28;20875;-66
2023/09/24 07:58:55;;;;;;;2.20;1.80;;;14.10;99.90;;;;;;4996487;28;20481;-66
2023/09/24 08:01:22;;;;;;;2.07;1.87;;;14.20;99.90;;;;;;5006523;28;20487;-66
2023/09/24 08:03:51;;;;;;;2.83;2.27;;;14.40;99.90;;;;;;4990930;28;20466;-66
2023/09/24 08:06:20;;;;;;;2.77;1.67;;;14.60;99.90;;;;;;4990231;28;20882;-66
2023/09/24 08:08:46;;;;;;;2.30;1.63;;;14.70;99.90;;;;;;4987517;28;20474;-66
2023/09/24 08:11:13;;;;;;;2.43;1.87;;;14.80;99.90;;;;;;4989343;28;20565;-66
2023/09/24 08:13:40;;;;;;;2.23;1.60;;;14.90;99.90;;;;;;4987643;28;20478;-66
2023/09/24 08:16:07;;;;;;;1.73;1.47;;;15.10;99.90;;;;;;4987842;28;20481;-66
2023/09/24 08:18:34;;;;;;;1.70;1.40;;;15.30;99.90;;;;;;4989109;28;20458;-66
2023/09/24 08:21:01;;;;;;;2.50;1.80;;;15.40;99.90;;;;;;4988890;28;20906;-66
2023/09/24 08:23:29;;;;;;;2.87;2.17;;;15.50;99.90;;;;;;4988544;28;20459;-66
2023/09/24 08:25:56;;;;;;;2.27;2.07;;;15.60;99.90;;;;;;4989464;28;20478;-66
2023/09/24 08:28:22;;;;;;;4.03;1.80;;;15.70;99.90;;;;;;4989472;28;20467;-66
2023/09/24 08:30:49;;;;;;;2.40;1.77;;;15.80;99.90;;;;;;4990171;28;21031;-66
2023/09/24 08:33:16;;;;;;;2.33;1.97;;;16.00;99.90;;;;;;4987825;28;20491;-67
2023/09/24 08:35:43;;;;;;;2.47;1.57;;;16.10;99.90;;;;;;4990778;28;20488;-66
2023/09/24 08:38:10;;;;;;;2.00;1.63;;;16.20;99.90;;;;;;4987833;28;20481;-67
2023/09/24 08:40:40;;;;;;;2.57;1.90;;;16.30;99.90;;;;;;4990611;28;20478;-67
2023/09/24 08:43:11;;;;;;;2.23;1.80;;;16.40;99.90;;;;;;4988119;28;20459;-67
2023/09/24 08:45:41;;;;;;;3.33;1.53;;;16.60;99.90;;;;;;4990700;28;20469;-66
2023/09/24 08:48:09;;;;;;;1.80;1.60;;;16.70;99.90;;;;;;4988483;28;21024;-66
2023/09/24 08:50:38;;;;;;;2.03;1.50;;;16.80;99.90;;;;;;4991056;28;20527;-66
2023/09/24 08:53:09;;;;;;;2.20;2.00;;;16.90;99.90;;;;;;4988743;28;20546;-67
2023/09/24 08:55:40;;;;;;;1.60;1.50;;;17.00;99.90;;;;;;4990616;28;20469;-67
2023/09/24 08:58:06;;;;;;;3.90;1.57;;;17.20;99.90;;;;;;4989347;28;21090;-67
2023/09/24 09:00:34;;;;;;;2.03;1.40;;;17.30;99.90;;;;;;4990996;28;20573;-67
2023/09/24 09:03:03;;;;;;;1.80;1.70;;;17.40;99.90;;;;;;4989525;28;20472;-67
2023/09/24 09:05:30;;;;;;;2.33;1.40;;;17.60;99.90;;;;;;4990643;28;20551;-66
2023/09/24 09:07:58;;;;;;;3.63;1.40;;;17.60;99.90;;;;;;4990019;28;20469;-67
2023/09/24 09:10:27;;;;;;;2.00;1.33;;;17.70;99.90;;;;;;4984011;28;20467;-67
2023/09/24 09:13:05;;;;;;;1.90;1.47;;;17.70;99.90;;;;;;4990447;28;21009;-67
2023/09/24 09:15:32;;;;;;;1.90;1.67;;;17.90;99.90;;;;;;4984813;28;20469;-67
2023/09/24 09:17:59;;;;;;;1.67;1.40;;;18.00;99.90;;;;;;4990197;28;20465;-67
2023/09/24 09:20:43;;;;;;;2.93;1.60;;;18.10;99.90;;;;;;4991133;28;20501;-67
2023/09/24 09:23:12;;;;;;;2.10;1.50;;;18.20;99.90;;;;;;4990828;28;20468;-67
2023/09/24 09:25:51;;;;;;;2.50;1.43;;;18.30;99.90;;;;;;4990687;28;20845;-67
2023/09/24 09:28:24;;;;;;;2.90;1.60;;;18.40;99.90;;;;;;4983190;28;20534;-67
2023/09/24 09:31:15;;;;;;;2.30;1.60;;;18.50;99.90;;;;;;4991134;28;21005;-67
2023/09/24 09:33:42;;;;;;;2.57;1.70;;;18.50;99.90;;;;;;4963652;28;21024;-66
2023/09/24 09:36:21;;;;;;;1.60;1.30;;;18.50;99.90;;;;;;4990426;28;20470;-67
2023/09/24 09:38:48;;;;;;;3.70;1.60;;;18.60;99.90;;;;;;4984538;28;20820;-67
2023/09/24 09:41:18;;;;;;;2.80;1.73;;;18.60;99.90;;;;;;4990392;28;20498;-67
2023/09/24 09:43:48;;;;;;;2.97;1.73;;;18.60;99.90;;;;;;4984101;28;20482;-67
2023/09/24 09:46:19;;;;;;;4.17;1.80;;;18.70;99.90;;;;;;4990571;28;20466;-67
2023/09/24 09:48:55;;;;;;;1.83;1.40;;;18.90;99.90;;;;;;4984282;28;20847;-67
2023/09/24 09:51:22;;;;;;;2.20;1.63;;;19.10;99.90;;;;;;4990990;28;20481;-67
2023/09/24 09:53:51;;;;;;;1.63;1.47;;;19.10;99.90;;;;;;4984700;28;20734;-67
2023/09/24 09:56:19;;;;;;;2.80;1.87;;;19.10;99.90;;;;;;4991054;28;21046;-66
2023/09/24 09:58:51;;;;;;;2.83;1.70;;;19.30;99.90;;;;;;4993563;28;20830;-67
2023/09/24 10:01:20;;;;;;;2.13;1.93;;;19.40;99.90;;;;;;5007233;28;20494;-67
2023/09/24 10:03:50;;;;;;;3.40;1.70;;;19.50;99.90;;;;;;4985185;28;20462;-67
2023/09/24 10:06:17;;;;;;;2.20;1.63;;;19.60;99.90;;;;;;4990949;28;20475;-67
2023/09/24 10:08:45;;;;;;;2.27;1.93;;;19.70;99.90;;;;;;4985711;28;20478;-67
2023/09/24 10:11:33;;;;;;;2.17;1.50;;;19.80;99.90;;;;;;4990853;28;20518;-67
2023/09/24 10:14:04;;;;;;;1.70;1.20;;;19.90;99.90;;;;;;4985159;28;20519;-67
2023/09/24 10:16:38;;;;;;;2.10;1.60;;;19.80;99.90;;;;;;4991469;28;20470;-67
2023/09/24 10:19:07;;;;;;;1.60;1.50;;;19.80;99.90;;;;;;4986133;28;20843;-67
2023/09/24 10:21:35;;;;;;;2.60;1.50;;;19.80;99.90;;;;;;4978439;28;20870;-67
2023/09/24 10:24:47;;;;;;;3.20;1.40;;;19.90;99.90;;;;;;4971377;28;20459;-67
2023/09/24 10:27:15;;;;;;;1.67;1.40;;;20.10;99.90;;;;;;4972129;28;20904;-67
2023/09/24 10:30:04;;;;;;;1.67;1.43;;;20.20;99.90;;;;;;4972057;28;20500;-67
2023/09/24 10:32:51;;;;;;;2.33;1.50;;;20.40;99.90;;;;;;4971858;28;20490;-67
2023/09/24 10:35:20;;;;;;;2.63;1.47;;;20.60;99.90;;;;;;4971643;28;20479;-67
2023/09/24 10:38:07;;;;;;;2.80;2.00;;;20.70;99.90;;;;;;4971638;28;20478;-67
2023/09/24 10:40:34;;;;;;;1.80;1.30;;;20.90;99.90;;;;;;4969049;28;20853;-67
2023/09/24 10:43:14;;;;;;;2.10;1.87;;;21.00;99.90;;;;;;4972145;28;20473;-67
2023/09/24 10:45:43;;;;;;;1.73;1.23;;;21.00;99.90;;;;;;4971938;28;20472;-66
2023/09/24 10:48:10;;;;;;;2.13;1.60;;;21.00;99.90;;;;;;4972159;28;21005;-66
2023/09/24 10:50:39;;;;;;;2.10;1.90;;;21.10;99.90;;;;;;4972327;28;20488;-67
2023/09/24 10:53:06;;;;;;;3.13;1.97;;;21.10;99.90;;;;;;4972268;28;21035;-67
2023/09/24 10:55:34;;;;;;;2.60;2.33;;;21.20;99.90;;;;;;4972247;28;20471;-67
2023/09/24 10:58:03;;;;;;;2.30;1.40;;;21.40;99.90;;;;;;4973003;28;20466;-67
2023/09/24 11:00:31;;;;;;;1.30;1.20;;;21.70;99.90;;;;;;4984908;28;20470;-67
2023/09/24 11:03:01;;;;;;;2.00;1.43;;;21.80;99.90;;;;;;4976311;28;20473;-67
2023/09/24 11:05:29;;;;;;;1.77;1.57;;;21.80;99.90;;;;;;4972906;28;20823;-67
2023/09/24 11:07:57;;;;;;;2.00;1.80;;;21.80;99.90;;;;;;4973134;28;20466;-67
2023/09/24 11:10:24;;;;;;;2.10;1.60;;;22.00;99.90;;;;;;4972856;28;20462;-66
2023/09/24 11:12:52;;;;;;;2.93;1.60;;;21.90;99.90;;;;;;4973266;28;20489;-67
2023/09/24 11:15:19;;;;;;;2.07;1.60;;;21.60;99.90;;;;;;4973266;28;20474;-67
2023/09/24 11:17:47;;;;;;;1.60;1.27;;;21.40;99.90;;;;;;4973342;28;20464;-67
2023/09/24 11:20:17;;;;;;;1.43;1.30;;;21.50;99.90;;;;;;4973543;28;20542;-67
2023/09/24 11:22:44;;;;;;;2.07;1.40;;;21.60;99.90;;;;;;4973261;28;20470;-67
2023/09/24 11:25:13;;;;;;;1.53;1.27;;;21.60;99.90;;;;;;4973293;28;20963;-67
2023/09/24 11:27:47;;;;;;;2.00;1.80;;;21.70;99.90;;;;;;4973558;28;20459;-67
2023/09/24 11:30:15;;;;;;;2.07;1.47;;;21.80;99.90;;;;;;4973926;28;20474;-67
2023/09/24 11:32:43;;;;;;;2.57;1.50;;;21.90;99.90;;;;;;4973356;28;20469;-67
2023/09/24 11:35:11;;;;;;;1.90;1.47;;;22.00;99.90;;;;;;4973667;28;20459;-67
2023/09/24 11:37:53;;;;;;;1.57;1.43;;;22.00;99.90;;;;;;4973535;28;20470;-66
2023/09/24 11:40:27;;;;;;;1.80;1.37;;;22.10;99.90;;;;;;4974266;28;20813;-66
2023/09/24 11:42:56;;;;;;;1.17;1.03;;;22.20;99.90;;;;;;4973676;28;20492;-66
2023/09/24 11:45:43;;;;;;;2.10;1.43;;;22.40;99.90;;;;;;4973982;28;20557;-66
2023/09/24 11:48:12;;;;;;;1.67;1.50;;;22.70;99.90;;;;;;4974448;28;20466;-66
2023/09/24 11:50:40;;;;;;;3.20;1.83;;;22.80;99.90;;;;;;4975290;28;20489;-66
2023/09/24 11:53:09;;;;;;;2.00;1.73;;;22.90;99.90;;;;;;4978008;28;20582;-66
2023/09/24 11:55:36;;;;;;;1.60;1.50;;;22.90;99.90;;;;;;4976889;28;20469;-66
2023/09/24 11:58:04;;;;;;;1.57;1.40;;;22.90;99.90;;;;;;4978073;28;20561;-66
2023/09/24 12:00:31;;;;;;;1.87;1.20;;;22.80;99.90;;;;;;4977120;28;20467;-66
2023/09/24 12:02:59;;;;;;;3.50;1.70;;;22.70;99.90;;;;;;4977207;28;20467;-66
2023/09/24 12:05:26;;;;;;;1.50;1.23;;;22.70;99.90;;;;;;4977648;28;20468;-66
2023/09/24 12:07:54;;;;;;;1.50;1.17;;;22.70;99.90;;;;;;4977379;28;20989;-67
2023/09/24 12:10:22;;;;;;;3.00;1.30;;;22.60;99.90;;;;;;4978369;28;20867;-67
2023/09/24 12:12:50;;;;;;;2.13;1.43;;;22.50;99.90;;;;;;4977430;28;20463;-67
2023/09/24 12:15:17;;;;;;;3.33;2.00;;;22.50;99.90;;;;;;4978244;28;20854;-67
2023/09/24 12:17:44;;;;;;;1.80;1.50;;;22.40;99.90;;;;;;4977631;28;20513;-66
2023/09/24 12:20:12;;;;;;;1.73;1.50;;;22.30;99.90;;;;;;4979025;28;20467;-67
2023/09/24 12:22:41;;;;;;;1.90;1.70;;;22.50;99.90;;;;;;4977406;28;20470;-67
2023/09/24 12:25:08;;;;;;;1.80;1.50;;;22.60;99.90;;;;;;4978494;28;20458;-67
2023/09/24 12:27:37;;;;;;;2.27;1.70;;;22.70;99.90;;;;;;4977772;28;20507;-67
2023/09/24 12:30:06;;;;;;;2.40;1.50;;;22.70;99.90;;;;;;4978378;28;20905;-67
2023/09/24 12:32:33;;;;;;;1.97;1.57;;;22.80;99.90;;;;;;4977634;28;20573;-66
2023/09/24 12:35:00;;;;;;;4.17;1.70;;;22.90;99.90;;;;;;4977452;28;20577;-67
2023/09/24 12:37:28;;;;;;;2.90;1.70;;;22.90;99.90;;;;;;4978530;28;20552;-67
2023/09/24 12:39:55;;;;;;;2.70;1.57;;;22.90;99.90;;;;;;4977767;28;20520;-66
2023/09/24 12:42:22;;;;;;;1.87;1.50;;;22.80;99.90;;;;;;4979019;28;20577;-66
2023/09/24 12:44:50;;;;;;;3.30;1.40;;;22.70;99.90;;;;;;4977237;28;20459;-66
2023/09/24 12:47:17;;;;;;;2.17;1.73;;;22.60;99.90;;;;;;4979350;28;20463;-67
2023/09/24 12:49:44;;;;;;;1.90;1.40;;;22.60;99.90;;;;;;4977569;28;20464;-66
2023/09/24 12:52:12;;;;;;;2.00;1.77;;;22.60;99.90;;;;;;4979230;28;20506;-67
2023/09/24 12:54:39;;;;;;;2.03;1.47;;;22.60;99.90;;;;;;4977551;28;20506;-66
2023/09/24 12:57:06;;;;;;;3.00;1.20;;;22.60;99.90;;;;;;4978868;28;20858;-66
2023/09/24 12:59:32;;;;;;;1.87;1.33;;;22.50;99.90;;;;;;4978098;28;20985;-67
2023/09/24 13:02:01;;;;;;;1.83;1.13;;;22.50;99.90;;;;;;4977722;28;20487;-66
2023/09/24 13:04:27;;;;;;;1.87;1.30;;;22.50;99.90;;;;;;4978648;28;20461;-67
2023/09/24 13:06:55;;;;;;;1.50;1.30;;;22.60;99.90;;;;;;4977898;28;20976;-67
2023/09/24 13:09:22;;;;;;;1.77;1.23;;;22.60;99.90;;;;;;4979540;28;20549;-67
2023/09/24 13:11:49;;;;;;;2.00;1.50;;;22.60;99.90;;;;;;4978037;28;20920;-67
2023/09/24 13:14:16;;;;;;;1.90;1.40;;;22.50;99.90;;;;;;4979224;28;20498;-67
2023/09/24 13:16:44;;;;;;;3.00;1.57;;;22.50;99.90;;;;;;4978241;28;20464;-67
2023/09/24 13:19:13;;;;;;;1.60;1.50;;;22.50;99.90;;;;;;4979610;28;20526;-67
2023/09/24 13:21:39;;;;;;;1.80;1.30;;;22.50;99.90;;;;;;4991593;28;20485;-67
2023/09/24 13:24:06;;;;;;;1.50;1.30;;;22.50;99.90;;;;;;4978559;28;20960;-67
2023/09/24 13:26:33;;;;;;;1.57;1.33;;;22.50;99.90;;;;;;4978908;28;20544;-67
2023/09/24 13:29:00;;;;;;;1.63;1.30;;;22.60;99.90;;;;;;4978029;28;20971;-67
2023/09/24 13:31:26;;;;;;;1.73;1.33;;;22.60;99.90;;;;;;4979492;28;20493;-67
2023/09/24 13:33:53;;;;;;;2.97;1.57;;;22.60;99.90;;;;;;4977429;28;20500;-66
2023/09/24 13:36:22;;;;;;;3.20;1.73;;;22.70;99.90;;;;;;4980417;28;20462;-67
2023/09/24 13:38:49;;;;;;;2.97;1.43;;;22.60;99.90;;;;;;4978314;28;20473;-67
2023/09/24 13:41:16;;;;;;;1.87;1.37;;;22.60;99.90;;;;;;4980150;28;21033;-67
2023/09/24 13:43:43;;;;;;;1.53;1.27;;;22.60;99.90;;;;;;4977605;28;20463;-67
2023/09/24 13:46:09;;;;;;;2.27;1.10;;;22.60;99.90;;;;;;4979991;28;20459;-67
2023/09/24 13:48:36;;;;;;;1.40;1.27;;;22.60;98.20;;;;;;4978628;28;20474;-67
2023/09/24 13:51:03;;;;;;;1.60;1.27;;;22.50;99.90;;;;;;4978725;28;20495;-66
2023/09/24 13:53:31;;;;;;;1.57;1.23;;;22.50;99.90;;;;;;4979415;28;20458;-67
2023/09/24 13:55:58;;;;;;;2.80;1.80;;;22.60;98.90;;;;;;4978421;28;20460;-67
2023/09/24 13:58:24;;;;;;;1.40;1.20;;;22.40;98.20;;;;;;4978084;28;20461;-67
2023/09/24 14:00:52;;;;;;;1.90;1.30;;;22.40;99.30;;;;;;4978310;28;20486;-67
2023/09/24 14:03:20;;;;;;;1.90;1.30;;;22.30;96.90;;;;;;4980416;28;20470;-67
2023/09/24 14:05:47;;;;;;;2.90;1.57;;;22.20;98.50;;;;;;4978159;28;20463;-67
2023/09/24 14:13:46;;;;;;;2.40;2.20;;;22.10;99.70;;;;;;4976133;28;20680;-67
2023/09/24 14:16:13;;;;;;;1.57;1.40;;;22.10;99.90;;;;;;4979949;28;20466;-67
2023/09/24 14:18:40;;;;;;;1.73;1.30;;;22.20;99.90;;;;;;4978055;28;21060;-67
2023/09/24 14:21:10;;;;;;;2.40;1.67;;;22.20;99.00;;;;;;4978097;28;20494;-67
2023/09/24 14:23:37;;;;;;;1.47;1.27;;;22.20;99.00;;;;;;4978768;28;20469;-67
2023/09/24 14:26:05;;;;;;;2.20;1.93;;;22.20;98.40;;;;;;4979166;28;20525;-67
2023/09/24 14:28:32;;;;;;;3.93;1.60;;;22.10;98.50;;;;;;4979290;28;20465;-67
2023/09/24 14:31:03;;;;;;;1.83;1.43;;;22.00;98.00;;;;;;4978415;28;20491;-67
2023/09/24 14:33:30;;;;;;;2.33;1.50;;;21.90;99.00;;;;;;4980080;28;20466;-67
2023/09/24 14:35:58;;;;;;;2.00;1.70;;;21.80;99.50;;;;;;4978677;28;20530;-67
2023/09/24 14:38:25;;;;;;;3.40;1.27;;;21.80;99.40;;;;;;4978405;28;20523;-67
2023/09/24 14:40:51;;;;;;;2.50;1.60;;;21.80;99.60;;;;;;4978625;28;20486;-67
2023/09/24 14:43:19;;;;;;;1.80;1.30;;;21.80;99.90;;;;;;4980190;28;20574;-67
2023/09/24 14:45:46;;;;;;;2.20;1.40;;;21.70;99.80;;;;;;4982374;28;20810;-67
2023/09/24 14:48:13;;;;;;;2.47;1.40;;;21.60;99.40;;;;;;4980594;28;20470;-67
2023/09/24 14:50:41;;;;;;;2.17;1.60;;;21.50;99.90;;;;;;4979505;28;20489;-66
2023/09/24 14:53:07;;;;;;;1.83;1.63;;;21.50;98.90;;;;;;4979853;28;20776;-67
2023/09/24 14:55:39;;;;;;;2.40;1.60;;;21.40;99.00;;;;;;4979788;28;20493;-67
2023/09/24 14:58:06;;;;;;;2.00;1.10;;;21.20;98.90;;;;;;4979898;28;20807;-67
2023/09/24 15:00:34;;;;;;;1.53;1.40;;;21.10;99.90;;;;;;4980731;28;20463;-67
2023/09/24 15:03:00;;;;;;;1.27;1.07;;;21.10;99.80;;;;;;4979138;28;20975;-66
2023/09/24 15:05:27;;;;;;;4.00;1.40;;;21.10;99.90;;;;;;4981292;28;20472;-67
2023/09/24 15:07:54;;;;;;;2.80;1.60;;;21.10;99.90;;;;;;4978930;28;20463;-67
2023/09/24 15:10:22;;;;;;;1.43;1.33;;;21.10;99.90;;;;;;4981926;28;20575;-66
2023/09/24 15:12:49;;;;;;;2.00;1.50;;;21.10;99.90;;;;;;4978842;28;20530;-67
2023/09/24 15:15:16;;;;;;;2.20;1.40;;;21.00;99.90;;;;;;4981008;28;20924;-67
2023/09/24 15:17:46;;;;;;;4.40;1.43;;;20.90;99.90;;;;;;4979746;28;20817;-66
2023/09/24 15:20:13;;;;;;;1.50;1.40;;;20.90;99.90;;;;;;4981144;28;20472;-66
2023/09/24 15:22:39;;;;;;;2.43;1.43;;;20.90;99.90;;;;;;4980278;28;20978;-66
2023/09/24 15:25:08;;;;;;;2.00;1.30;;;20.80;99.90;;;;;;4982171;28;20461;-66
2023/09/24 15:27:35;;;;;;;3.10;1.30;;;20.60;99.90;;;;;;4985027;28;20491;-66
2023/09/24 15:30:04;;;;;;;2.97;1.70;;;20.40;99.90;;;;;;4988228;28;20464;-66
2023/09/24 15:32:31;;;;;;;2.60;1.97;;;20.00;99.90;;;;;;4985487;28;20486;-67
2023/09/24 15:34:59;;;;;;;1.60;1.37;;;19.80;99.90;;;;;;4982932;28;20490;-66
2023/09/24 15:37:25;;;;;;;1.67;1.57;;;19.60;99.90;;;;;;4983034;28;20999;-66
2023/09/24 15:39:52;;;;;;;2.33;1.63;;;19.60;99.90;;;;;;4983045;28;20467;-66
2023/09/24 15:42:19;;;;;;;2.13;1.60;;;19.60;99.90;;;;;;4984690;28;20486;-67
2023/09/24 15:44:45;;;;;;;2.03;1.47;;;19.60;99.90;;;;;;4987900;28;20459;-66
2023/09/24 15:47:12;;;;;;;1.97;1.77;;;19.70;99.90;;;;;;4984739;28;20460;-66
2023/09/24 15:49:39;;;;;;;1.93;1.70;;;19.70;99.90;;;;;;4984389;28;20458;-66
2023/09/24 15:52:07;;;;;;;1.57;1.47;;;19.60;99.90;;;;;;4986769;28;21015;-66
2023/09/24 15:54:34;;;;;;;1.83;1.50;;;19.60;99.90;;;;;;4984530;28;20539;-66
2023/09/24 15:57:01;;;;;;;3.60;1.77;;;19.60;99.90;;;;;;4982750;28;20463;-71
2023/09/24 15:59:27;;;;;;;2.70;1.40;;;19.60;99.90;;;;;;4986902;28;20959;-68
2023/09/24 16:01:54;;;;;;;1.60;1.30;;;19.50;99.90;;;;;;4983377;28;20479;-67
2023/09/24 16:04:21;;;;;;;2.20;1.30;;;19.40;99.90;;;;;;4984513;28;20980;-68
2023/09/24 16:06:48;;;;;;;1.83;1.50;;;19.30;99.90;;;;;;4983621;28;20466;-68
2023/09/24 16:09:16;;;;;;;2.43;1.47;;;19.20;99.90;;;;;;4984908;28;20485;-67
2023/09/24 16:11:42;;;;;;;1.57;1.33;;;19.10;99.90;;;;;;4983856;28;20578;-67
2023/09/24 16:14:09;;;;;;;3.33;1.50;;;19.10;99.90;;;;;;4983644;28;20467;-67
2023/09/24 16:16:36;;;;;;;2.20;1.40;;;19.00;99.90;;;;;;4985037;28;20474;-67
2023/09/24 16:19:02;;;;;;;2.10;1.70;;;19.00;99.90;;;;;;4982543;28;20474;-68
2023/09/24 16:21:29;;;;;;;4.03;1.80;;;19.00;99.90;;;;;;4983033;28;20851;-67
2023/09/24 16:23:56;;;;;;;1.73;1.60;;;18.90;99.90;;;;;;4977491;28;20468;-67
2023/09/24 16:26:25;;;;;;;1.30;1.20;;;18.80;99.90;;;;;;4982168;28;20536;-66
2023/09/24 16:28:51;;;;;;;2.20;1.37;;;18.70;99.90;;;;;;4978561;28;20481;-67
2023/09/24 16:31:18;;;;;;;2.17;2.03;;;18.60;99.90;;;;;;4981622;28;20500;-68